METAR AND TAF INFORMATION
METAR FOR KBTV
ADDS - METARS form results

(0319 UTC 19 August 2018)
Data provider http://aviationweather.gov/adds/metars/
 
METAR text: KBTV 190310Z 00000KT 1/4SM R15/P6000FT FG VV001 18/17 A2996 RMK AO2 T01780167
Conditions at: KBTV (BURLINGTON , VT, US) observed 0310 UTC 19 August 2018
Temperature: 17.8°C (64°F)
Dewpoint: 16.7°C (62°F) [RH = 93%]
Pressure (altimeter): 29.96 inches Hg (1014.6 mb)
Winds: calm
Visibility: 0.25 miles (0.40 km)
Ceiling: indefinite ceiling with vertical visibility of 100 feet AGL
Clouds: obscured sky
Weather: FG  (fog)

METAR text: KBTV 190307Z 00000KT 1 3/4SM BR SCT002 18/17 A2996 RMK AO2 T01780167
Conditions at: KBTV (BURLINGTON , VT, US) observed 0307 UTC 19 August 2018
Temperature: 17.8°C (64°F)
Dewpoint: 16.7°C (62°F) [RH = 93%]
Pressure (altimeter): 29.96 inches Hg (1014.6 mb)
Winds: calm
Visibility: 1.75 miles (2.82 km)
Ceiling: at least 12,000 feet AGL
Clouds: scattered clouds at 200 feet AGL
Weather: BR  (mist)

METAR text: KBTV 190254Z 00000KT 10SM FEW002 18/17 A2996 RMK AO2 SLP145 VCFG T01780167 51012
Conditions at: KBTV (BURLINGTON , VT, US) observed 0254 UTC 19 August 2018
Temperature: 17.8°C (64°F)
Dewpoint: 16.7°C (62°F) [RH = 93%]
Pressure (altimeter): 29.96 inches Hg (1014.6 mb)
[Sea-level pressure: 1014.5 mb]
Winds: calm
Visibility: 10 or more miles (16+ km)
Ceiling: at least 12,000 feet AGL
Clouds: few clouds at 200 feet AGL
Weather: no significant weather observed at this time

METAR text: KBTV 190247Z 00000KT 8SM FEW002 18/17 A2996 RMK AO2 VCFG T01780167
Conditions at: KBTV (BURLINGTON , VT, US) observed 0247 UTC 19 August 2018
Temperature: 17.8°C (64°F)
Dewpoint: 16.7°C (62°F) [RH = 93%]
Pressure (altimeter): 29.96 inches Hg (1014.6 mb)
Winds: calm
Visibility: 8 miles (13 km)
Ceiling: at least 12,000 feet AGL
Clouds: few clouds at 200 feet AGL
Weather: no significant weather observed at this time

Forecast for: KBTV (BURLINGTON , VT, US)
Text: KBTV 190303Z 1903/1924 VRB03KT P6SM FEW002
Forecast period: 0300 to 0600 UTC 19 August 2018
Forecast type: FROM: standard forecast or significant change
Winds: variable direction winds at 3 MPH (3 knots; 1.6 m/s)
Visibility: 6 or more miles (10+ km)
Clouds: few clouds at 200 feet AGL
Weather: no significant weather forecast for this period
Text: TEMPO 1903/1906 2SM BR SCT002
Forecast period: 0300 to 0600 UTC 19 August 2018
Forecast type: TEMPORARY: The following changes expected for less than half the time period
Visibility: 2.00 miles (3.22 km)
Clouds: scattered clouds at 200 feet AGL
Weather: BR  (mist)
Text: FM190600 03003KT 4SM BR FEW001
Forecast period: 0600 to 1600 UTC 19 August 2018
Forecast type: FROM: standard forecast or significant change
Winds: from the NNE (30 degrees) at 3 MPH (3 knots; 1.6 m/s)
Visibility: 4 miles (6 km)
Clouds: few clouds at 100 feet AGL
Weather: BR  (mist)
Text: TEMPO 1909/1912 2SM BR SCT002
Forecast period: 0900 to 1200 UTC 19 August 2018
Forecast type: TEMPORARY: The following changes expected for less than half the time period
Visibility: 2.00 miles (3.22 km)
Clouds: scattered clouds at 200 feet AGL
Weather: BR  (mist)
Text: FM191600 31005KT P6SM FEW080
Forecast period: 1600 UTC 19 August 2018 to 0000 UTC 20 August 2018
Forecast type: FROM: standard forecast or significant change
Winds: from the NW (310 degrees) at 6 MPH (5 knots; 2.6 m/s)
Visibility: 6 or more miles (10+ km)
Clouds: few clouds at 8000 feet AGL
Weather: no significant weather forecast for this period

 AIRPORT MAP

 RUNWAY INFORMATION
Runway 01 Runway length 3611 ft Runway width 75 ft
Runway elevation 333 ft Runway displaced threshold 225 ft Runway heading 351
Runway 19 Runway length 3611 ft Runway width 75 ft
Runway elevation 329 ft Runway displaced threshold 0 ft Runway heading 171
Runway 15 Runway length 8320 ft Runway width 150 ft
Runway elevation 306 ft Runway displaced threshold 0 ft Runway heading 131
Runway 33 Runway length 8320 ft Runway width 150 ft
Runway elevation 334 ft Runway displaced threshold 500 ft Runway heading 311

 AIRPORT FREQUENCIES
Type A/D Name APP/DEP Frequency 121.1 MHZ
Type ATIS Name ATIS Frequency 123.8 MHZ
Type CTAF Name CTAF Frequency 118.3 MHZ
Type GND Name GND Frequency 121.9 MHZ
Type MISC Name ANG OPS Frequency 125.125 MHZ
Type OPS Name ARNG OPS Frequency 41.2 MHZ
Type RDO Name RDO Frequency 122.2 MHZ
Type TWR Name TWR Frequency 118.3 MHZ
Type UNIC Name UNICOM Frequency 122.95 MHZ

 AIRPORT NEAR NAVIGATION AIDS
Type NDB Name Herro Frequency 382 KHZ
Type VORTAC Name Burlington Frequency 117500 KHZ



Powered by Virtual Airlines Manager [v2.6.2]